sensor_id;sensor_type;location;lat;lon;timestamp;P1;durP1;ratioP1;P2;durP2;ratioP2
5379;SDS011;2713;42.680;23.310;2023-04-03T00:01:55;5.07;;;4.40;;
5379;SDS011;2713;42.680;23.310;2023-04-03T00:04:22;6.63;;;4.83;;
5379;SDS011;2713;42.680;23.310;2023-04-03T00:06:49;6.17;;;4.60;;
5379;SDS011;2713;42.680;23.310;2023-04-03T00:09:18;4.80;;;4.40;;
5379;SDS011;2713;42.680;23.310;2023-04-03T00:11:45;5.00;;;4.50;;
5379;SDS011;2713;42.680;23.310;2023-04-03T00:14:12;5.97;;;4.60;;
5379;SDS011;2713;42.680;23.310;2023-04-03T00:16:38;4.77;;;4.30;;
5379;SDS011;2713;42.680;23.310;2023-04-03T00:19:05;6.10;;;4.60;;
5379;SDS011;2713;42.680;23.310;2023-04-03T00:21:32;4.60;;;4.20;;
5379;SDS011;2713;42.680;23.310;2023-04-03T00:23:59;9.57;;;6.30;;
5379;SDS011;2713;42.680;23.310;2023-04-03T00:26:27;7.70;;;5.37;;
5379;SDS011;2713;42.680;23.310;2023-04-03T00:28:53;9.57;;;7.20;;
5379;SDS011;2713;42.680;23.310;2023-04-03T00:31:21;5.57;;;4.80;;
5379;SDS011;2713;42.680;23.310;2023-04-03T00:33:48;5.53;;;4.93;;
5379;SDS011;2713;42.680;23.310;2023-04-03T00:36:14;7.27;;;4.10;;
5379;SDS011;2713;42.680;23.310;2023-04-03T00:38:41;4.93;;;4.40;;
5379;SDS011;2713;42.680;23.310;2023-04-03T00:41:08;4.03;;;3.60;;
5379;SDS011;2713;42.680;23.310;2023-04-03T00:43:36;4.70;;;4.30;;
5379;SDS011;2713;42.680;23.310;2023-04-03T00:46:03;5.60;;;4.40;;
5379;SDS011;2713;42.680;23.310;2023-04-03T00:48:31;5.67;;;4.57;;
5379;SDS011;2713;42.680;23.310;2023-04-03T00:51:01;6.10;;;4.83;;
5379;SDS011;2713;42.680;23.310;2023-04-03T00:53:31;5.20;;;4.63;;
5379;SDS011;2713;42.680;23.310;2023-04-03T00:56:01;6.23;;;4.90;;
5379;SDS011;2713;42.680;23.310;2023-04-03T00:58:36;5.30;;;4.50;;
5379;SDS011;2713;42.680;23.310;2023-04-03T01:01:08;6.67;;;4.90;;
5379;SDS011;2713;42.680;23.310;2023-04-03T01:03:39;6.60;;;4.63;;
5379;SDS011;2713;42.680;23.310;2023-04-03T01:06:06;5.33;;;4.83;;
5379;SDS011;2713;42.680;23.310;2023-04-03T01:08:33;5.47;;;4.97;;
5379;SDS011;2713;42.680;23.310;2023-04-03T01:11:01;6.63;;;5.20;;
5379;SDS011;2713;42.680;23.310;2023-04-03T01:13:29;5.57;;;5.07;;
5379;SDS011;2713;42.680;23.310;2023-04-03T01:15:59;6.97;;;5.30;;
5379;SDS011;2713;42.680;23.310;2023-04-03T01:18:27;5.40;;;4.90;;
5379;SDS011;2713;42.680;23.310;2023-04-03T01:23:53;6.03;;;5.07;;
5379;SDS011;2713;42.680;23.310;2023-04-03T01:26:29;7.10;;;4.40;;
5379;SDS011;2713;42.680;23.310;2023-04-03T01:28:56;4.90;;;4.50;;
5379;SDS011;2713;42.680;23.310;2023-04-03T01:34:02;4.27;;;3.87;;
5379;SDS011;2713;42.680;23.310;2023-04-03T01:36:31;4.80;;;3.90;;
5379;SDS011;2713;42.680;23.310;2023-04-03T01:38:58;4.30;;;3.83;;
5379;SDS011;2713;42.680;23.310;2023-04-03T01:41:26;4.50;;;4.20;;
5379;SDS011;2713;42.680;23.310;2023-04-03T01:44:01;7.27;;;5.17;;
5379;SDS011;2713;42.680;23.310;2023-04-03T01:46:28;3.80;;;3.50;;
5379;SDS011;2713;42.680;23.310;2023-04-03T01:48:55;3.60;;;3.23;;
5379;SDS011;2713;42.680;23.310;2023-04-03T01:51:24;3.37;;;3.07;;
5379;SDS011;2713;42.680;23.310;2023-04-03T01:53:50;3.93;;;3.37;;
5379;SDS011;2713;42.680;23.310;2023-04-03T01:56:17;3.53;;;3.33;;
5379;SDS011;2713;42.680;23.310;2023-04-03T01:58:45;3.23;;;3.03;;
5379;SDS011;2713;42.680;23.310;2023-04-03T02:01:12;3.83;;;3.40;;
5379;SDS011;2713;42.680;23.310;2023-04-03T02:03:40;3.70;;;3.40;;
5379;SDS011;2713;42.680;23.310;2023-04-03T02:06:07;4.47;;;4.07;;
5379;SDS011;2713;42.680;23.310;2023-04-03T02:08:35;3.67;;;3.30;;
5379;SDS011;2713;42.680;23.310;2023-04-03T02:11:02;3.90;;;3.60;;
5379;SDS011;2713;42.680;23.310;2023-04-03T02:13:28;4.60;;;3.80;;
5379;SDS011;2713;42.680;23.310;2023-04-03T02:15:55;3.80;;;3.40;;
5379;SDS011;2713;42.680;23.310;2023-04-03T02:18:22;3.70;;;3.47;;
5379;SDS011;2713;42.680;23.310;2023-04-03T02:20:49;5.90;;;3.60;;
5379;SDS011;2713;42.680;23.310;2023-04-03T02:23:16;3.70;;;3.40;;
5379;SDS011;2713;42.680;23.310;2023-04-03T02:25:44;3.83;;;3.53;;
5379;SDS011;2713;42.680;23.310;2023-04-03T02:28:11;6.10;;;3.30;;
5379;SDS011;2713;42.680;23.310;2023-04-03T02:30:38;3.77;;;3.47;;
5379;SDS011;2713;42.680;23.310;2023-04-03T02:33:05;4.37;;;3.97;;
5379;SDS011;2713;42.680;23.310;2023-04-03T02:35:32;4.23;;;3.83;;
5379;SDS011;2713;42.680;23.310;2023-04-03T02:37:59;4.73;;;4.13;;
5379;SDS011;2713;42.680;23.310;2023-04-03T02:40:26;4.43;;;3.87;;
5379;SDS011;2713;42.680;23.310;2023-04-03T02:42:54;6.30;;;4.50;;
5379;SDS011;2713;42.680;23.310;2023-04-03T02:45:23;5.27;;;4.30;;
5379;SDS011;2713;42.680;23.310;2023-04-03T02:47:50;5.20;;;4.27;;
5379;SDS011;2713;42.680;23.310;2023-04-03T02:50:17;4.60;;;4.20;;
5379;SDS011;2713;42.680;23.310;2023-04-03T02:52:44;4.80;;;4.47;;
5379;SDS011;2713;42.680;23.310;2023-04-03T02:55:12;4.43;;;4.03;;
5379;SDS011;2713;42.680;23.310;2023-04-03T02:57:41;4.40;;;4.00;;
5379;SDS011;2713;42.680;23.310;2023-04-03T03:00:10;5.93;;;4.80;;
5379;SDS011;2713;42.680;23.310;2023-04-03T03:02:38;4.80;;;4.40;;
5379;SDS011;2713;42.680;23.310;2023-04-03T03:05:04;8.07;;;4.70;;
5379;SDS011;2713;42.680;23.310;2023-04-03T03:07:32;4.53;;;4.17;;
5379;SDS011;2713;42.680;23.310;2023-04-03T03:09:59;4.93;;;4.23;;
5379;SDS011;2713;42.680;23.310;2023-04-03T03:12:26;4.77;;;4.30;;
5379;SDS011;2713;42.680;23.310;2023-04-03T03:14:55;4.67;;;4.27;;
5379;SDS011;2713;42.680;23.310;2023-04-03T03:17:23;5.10;;;4.60;;
5379;SDS011;2713;42.680;23.310;2023-04-03T03:19:49;5.90;;;5.27;;
5379;SDS011;2713;42.680;23.310;2023-04-03T03:22:16;5.47;;;4.70;;
5379;SDS011;2713;42.680;23.310;2023-04-03T03:24:43;6.63;;;5.00;;
5379;SDS011;2713;42.680;23.310;2023-04-03T03:27:10;9.60;;;6.20;;
5379;SDS011;2713;42.680;23.310;2023-04-03T03:29:37;5.97;;;4.60;;
5379;SDS011;2713;42.680;23.310;2023-04-03T03:32:04;5.53;;;5.03;;
5379;SDS011;2713;42.680;23.310;2023-04-03T03:34:33;5.50;;;5.00;;
5379;SDS011;2713;42.680;23.310;2023-04-03T03:36:59;8.93;;;5.07;;
5379;SDS011;2713;42.680;23.310;2023-04-03T03:39:27;5.33;;;4.70;;
5379;SDS011;2713;42.680;23.310;2023-04-03T03:41:55;8.40;;;5.70;;
5379;SDS011;2713;42.680;23.310;2023-04-03T03:44:22;15.03;;;6.00;;
5379;SDS011;2713;42.680;23.310;2023-04-03T03:46:49;8.47;;;5.70;;
5379;SDS011;2713;42.680;23.310;2023-04-03T03:49:16;7.33;;;5.77;;
5379;SDS011;2713;42.680;23.310;2023-04-03T03:51:44;7.20;;;6.10;;
5379;SDS011;2713;42.680;23.310;2023-04-03T03:54:11;7.30;;;5.50;;
5379;SDS011;2713;42.680;23.310;2023-04-03T03:56:38;8.50;;;6.80;;
5379;SDS011;2713;42.680;23.310;2023-04-03T03:59:05;8.97;;;6.80;;
5379;SDS011;2713;42.680;23.310;2023-04-03T04:01:33;9.67;;;7.40;;
5379;SDS011;2713;42.680;23.310;2023-04-03T04:04:01;11.20;;;9.83;;
5379;SDS011;2713;42.680;23.310;2023-04-03T04:06:30;10.00;;;7.70;;
5379;SDS011;2713;42.680;23.310;2023-04-03T04:09:02;8.70;;;7.70;;
5379;SDS011;2713;42.680;23.310;2023-04-03T04:11:30;9.57;;;7.30;;
5379;SDS011;2713;42.680;23.310;2023-04-03T04:13:58;11.70;;;7.40;;
5379;SDS011;2713;42.680;23.310;2023-04-03T04:16:27;10.07;;;7.40;;
5379;SDS011;2713;42.680;23.310;2023-04-03T04:18:57;9.40;;;7.40;;
5379;SDS011;2713;42.680;23.310;2023-04-03T04:21:24;10.40;;;8.10;;
5379;SDS011;2713;42.680;23.310;2023-04-03T04:23:52;10.70;;;7.13;;
5379;SDS011;2713;42.680;23.310;2023-04-03T04:26:21;10.73;;;7.33;;
5379;SDS011;2713;42.680;23.310;2023-04-03T04:28:48;8.83;;;7.63;;
5379;SDS011;2713;42.680;23.310;2023-04-03T04:31:17;10.20;;;7.13;;
5379;SDS011;2713;42.680;23.310;2023-04-03T04:33:44;14.13;;;8.20;;
5379;SDS011;2713;42.680;23.310;2023-04-03T04:36:13;11.70;;;8.00;;
5379;SDS011;2713;42.680;23.310;2023-04-03T04:38:42;22.53;;;9.20;;
5379;SDS011;2713;42.680;23.310;2023-04-03T04:41:09;12.80;;;8.57;;
5379;SDS011;2713;42.680;23.310;2023-04-03T04:43:37;10.30;;;8.80;;
5379;SDS011;2713;42.680;23.310;2023-04-03T04:46:05;9.60;;;7.70;;
5379;SDS011;2713;42.680;23.310;2023-04-03T04:48:38;12.13;;;8.80;;
5379;SDS011;2713;42.680;23.310;2023-04-03T04:51:06;16.80;;;9.20;;
5379;SDS011;2713;42.680;23.310;2023-04-03T04:53:35;13.50;;;9.00;;
5379;SDS011;2713;42.680;23.310;2023-04-03T04:56:02;15.60;;;9.20;;
5379;SDS011;2713;42.680;23.310;2023-04-03T04:58:32;14.33;;;8.40;;
5379;SDS011;2713;42.680;23.310;2023-04-03T05:01:02;11.60;;;8.73;;
5379;SDS011;2713;42.680;23.310;2023-04-03T05:03:32;18.43;;;8.87;;
5379;SDS011;2713;42.680;23.310;2023-04-03T05:05:59;17.97;;;9.43;;
5379;SDS011;2713;42.680;23.310;2023-04-03T05:08:29;11.67;;;8.33;;
5379;SDS011;2713;42.680;23.310;2023-04-03T05:10:56;18.90;;;9.77;;
5379;SDS011;2713;42.680;23.310;2023-04-03T05:13:25;20.33;;;9.60;;
5379;SDS011;2713;42.680;23.310;2023-04-03T05:15:53;14.30;;;9.30;;
5379;SDS011;2713;42.680;23.310;2023-04-03T05:18:21;19.10;;;9.70;;
5379;SDS011;2713;42.680;23.310;2023-04-03T05:20:49;18.00;;;10.20;;
5379;SDS011;2713;42.680;23.310;2023-04-03T05:23:17;15.00;;;10.20;;
5379;SDS011;2713;42.680;23.310;2023-04-03T05:25:46;23.67;;;10.20;;
5379;SDS011;2713;42.680;23.310;2023-04-03T05:28:14;14.73;;;9.70;;
5379;SDS011;2713;42.680;23.310;2023-04-03T05:30:41;20.37;;;11.10;;
5379;SDS011;2713;42.680;23.310;2023-04-03T05:33:08;21.03;;;14.03;;
5379;SDS011;2713;42.680;23.310;2023-04-03T05:35:43;20.83;;;10.60;;
5379;SDS011;2713;42.680;23.310;2023-04-03T05:38:15;14.07;;;9.63;;
5379;SDS011;2713;42.680;23.310;2023-04-03T05:40:43;15.87;;;10.30;;
5379;SDS011;2713;42.680;23.310;2023-04-03T05:43:10;18.17;;;10.83;;
5379;SDS011;2713;42.680;23.310;2023-04-03T05:45:39;20.73;;;11.60;;
5379;SDS011;2713;42.680;23.310;2023-04-03T05:48:07;22.40;;;13.80;;
5379;SDS011;2713;42.680;23.310;2023-04-03T05:50:34;19.93;;;13.83;;
5379;SDS011;2713;42.680;23.310;2023-04-03T05:53:08;18.30;;;12.70;;
5379;SDS011;2713;42.680;23.310;2023-04-03T05:55:42;21.53;;;12.93;;
5379;SDS011;2713;42.680;23.310;2023-04-03T05:58:09;22.83;;;12.77;;
5379;SDS011;2713;42.680;23.310;2023-04-03T06:00:37;19.03;;;12.20;;
5379;SDS011;2713;42.680;23.310;2023-04-03T06:03:04;16.10;;;12.10;;
5379;SDS011;2713;42.680;23.310;2023-04-03T06:05:32;21.83;;;12.10;;
5379;SDS011;2713;42.680;23.310;2023-04-03T06:07:59;12.77;;;10.57;;
5379;SDS011;2713;42.680;23.310;2023-04-03T06:10:27;17.00;;;9.10;;
5379;SDS011;2713;42.680;23.310;2023-04-03T06:12:54;11.57;;;8.87;;
5379;SDS011;2713;42.680;23.310;2023-04-03T06:15:22;11.40;;;10.20;;
5379;SDS011;2713;42.680;23.310;2023-04-03T06:17:49;11.03;;;7.80;;
5379;SDS011;2713;42.680;23.310;2023-04-03T06:20:15;13.03;;;7.93;;
5379;SDS011;2713;42.680;23.310;2023-04-03T06:22:42;12.40;;;8.60;;
5379;SDS011;2713;42.680;23.310;2023-04-03T06:25:10;16.23;;;9.83;;
5379;SDS011;2713;42.680;23.310;2023-04-03T06:27:39;921.75;;;510.98;;
5379;SDS011;2713;42.680;23.310;2023-04-03T06:30:06;523.50;;;264.83;;
5379;SDS011;2713;42.680;23.310;2023-04-03T06:32:33;632.50;;;335.80;;
5379;SDS011;2713;42.680;23.310;2023-04-03T06:35:00;443.33;;;221.73;;
5379;SDS011;2713;42.680;23.310;2023-04-03T06:37:27;693.40;;;370.00;;
5379;SDS011;2713;42.680;23.310;2023-04-03T06:39:55;529.07;;;237.60;;
5379;SDS011;2713;42.680;23.310;2023-04-03T06:42:22;124.03;;;59.50;;
5379;SDS011;2713;42.680;23.310;2023-04-03T06:45:06;24.53;;;12.60;;
5379;SDS011;2713;42.680;23.310;2023-04-03T06:47:34;10.00;;;8.90;;
5379;SDS011;2713;42.680;23.310;2023-04-03T06:50:01;15.60;;;8.90;;
5379;SDS011;2713;42.680;23.310;2023-04-03T06:52:28;16.80;;;8.87;;
5379;SDS011;2713;42.680;23.310;2023-04-03T06:54:55;11.30;;;7.80;;
5379;SDS011;2713;42.680;23.310;2023-04-03T06:57:22;14.73;;;11.77;;
5379;SDS011;2713;42.680;23.310;2023-04-03T06:59:49;13.40;;;8.70;;
5379;SDS011;2713;42.680;23.310;2023-04-03T07:02:18;9.17;;;7.97;;
5379;SDS011;2713;42.680;23.310;2023-04-03T07:04:45;12.43;;;8.37;;
5379;SDS011;2713;42.680;23.310;2023-04-03T07:07:12;12.20;;;8.63;;
5379;SDS011;2713;42.680;23.310;2023-04-03T07:09:40;12.50;;;8.13;;
5379;SDS011;2713;42.680;23.310;2023-04-03T07:12:07;11.53;;;8.00;;
5379;SDS011;2713;42.680;23.310;2023-04-03T07:14:34;11.57;;;8.20;;
5379;SDS011;2713;42.680;23.310;2023-04-03T07:17:01;8.90;;;8.00;;
5379;SDS011;2713;42.680;23.310;2023-04-03T07:19:29;9.17;;;8.20;;
5379;SDS011;2713;42.680;23.310;2023-04-03T07:21:56;11.30;;;10.10;;
5379;SDS011;2713;42.680;23.310;2023-04-03T07:24:23;17.47;;;11.07;;
5379;SDS011;2713;42.680;23.310;2023-04-03T07:26:50;13.70;;;10.40;;
5379;SDS011;2713;42.680;23.310;2023-04-03T07:29:17;18.00;;;11.50;;
5379;SDS011;2713;42.680;23.310;2023-04-03T07:31:46;13.83;;;10.17;;
5379;SDS011;2713;42.680;23.310;2023-04-03T07:34:14;11.47;;;10.27;;
5379;SDS011;2713;42.680;23.310;2023-04-03T07:36:42;15.20;;;8.63;;
5379;SDS011;2713;42.680;23.310;2023-04-03T07:39:09;11.20;;;7.23;;
5379;SDS011;2713;42.680;23.310;2023-04-03T07:41:36;7.50;;;6.70;;
5379;SDS011;2713;42.680;23.310;2023-04-03T07:44:03;6.97;;;6.27;;
5379;SDS011;2713;42.680;23.310;2023-04-03T07:46:30;8.30;;;5.70;;
5379;SDS011;2713;42.680;23.310;2023-04-03T07:48:57;5.40;;;5.00;;
5379;SDS011;2713;42.680;23.310;2023-04-03T07:51:24;7.53;;;6.40;;
5379;SDS011;2713;42.680;23.310;2023-04-03T07:53:53;9.10;;;7.10;;
5379;SDS011;2713;42.680;23.310;2023-04-03T07:56:20;8.57;;;6.00;;
5379;SDS011;2713;42.680;23.310;2023-04-03T07:58:47;11.27;;;8.47;;
5379;SDS011;2713;42.680;23.310;2023-04-03T08:01:14;10.10;;;7.90;;
5379;SDS011;2713;42.680;23.310;2023-04-03T08:03:41;11.90;;;9.43;;
5379;SDS011;2713;42.680;23.310;2023-04-03T08:06:08;15.97;;;10.90;;
5379;SDS011;2713;42.680;23.310;2023-04-03T08:08:35;16.60;;;10.97;;
5379;SDS011;2713;42.680;23.310;2023-04-03T08:11:03;12.00;;;10.70;;
5379;SDS011;2713;42.680;23.310;2023-04-03T08:13:31;16.30;;;12.60;;
5379;SDS011;2713;42.680;23.310;2023-04-03T08:16:06;17.03;;;13.00;;
5379;SDS011;2713;42.680;23.310;2023-04-03T08:18:34;20.10;;;13.27;;
5379;SDS011;2713;42.680;23.310;2023-04-03T08:21:04;20.93;;;15.13;;
5379;SDS011;2713;42.680;23.310;2023-04-03T08:23:32;24.17;;;14.10;;
5379;SDS011;2713;42.680;23.310;2023-04-03T08:25:58;18.57;;;13.60;;
5379;SDS011;2713;42.680;23.310;2023-04-03T08:28:27;20.80;;;13.53;;
5379;SDS011;2713;42.680;23.310;2023-04-03T08:30:53;18.63;;;14.43;;
5379;SDS011;2713;42.680;23.310;2023-04-03T08:33:21;18.57;;;15.23;;
5379;SDS011;2713;42.680;23.310;2023-04-03T08:35:48;19.73;;;13.77;;
5379;SDS011;2713;42.680;23.310;2023-04-03T08:38:14;19.60;;;13.40;;
5379;SDS011;2713;42.680;23.310;2023-04-03T08:40:45;19.07;;;14.20;;
5379;SDS011;2713;42.680;23.310;2023-04-03T08:43:23;17.53;;;14.90;;
5379;SDS011;2713;42.680;23.310;2023-04-03T08:46:00;19.60;;;15.40;;
5379;SDS011;2713;42.680;23.310;2023-04-03T08:48:31;18.57;;;15.30;;
5379;SDS011;2713;42.680;23.310;2023-04-03T08:51:03;22.90;;;17.00;;
5379;SDS011;2713;42.680;23.310;2023-04-03T08:53:37;21.17;;;17.10;;
5379;SDS011;2713;42.680;23.310;2023-04-03T08:56:08;22.63;;;18.77;;
5379;SDS011;2713;42.680;23.310;2023-04-03T08:58:40;30.93;;;20.00;;
5379;SDS011;2713;42.680;23.310;2023-04-03T09:01:14;31.67;;;20.37;;
5379;SDS011;2713;42.680;23.310;2023-04-03T09:03:45;29.37;;;21.30;;
5379;SDS011;2713;42.680;23.310;2023-04-03T09:06:12;25.90;;;19.17;;
5379;SDS011;2713;42.680;23.310;2023-04-03T09:08:43;32.50;;;19.83;;
5379;SDS011;2713;42.680;23.310;2023-04-03T09:11:16;22.43;;;17.70;;
5379;SDS011;2713;42.680;23.310;2023-04-03T09:13:51;18.87;;;16.10;;
5379;SDS011;2713;42.680;23.310;2023-04-03T09:16:27;23.10;;;17.10;;
5379;SDS011;2713;42.680;23.310;2023-04-03T09:19:03;31.90;;;17.07;;
5379;SDS011;2713;42.680;23.310;2023-04-03T09:21:41;30.17;;;16.70;;
5379;SDS011;2713;42.680;23.310;2023-04-03T09:24:09;19.07;;;14.30;;
5379;SDS011;2713;42.680;23.310;2023-04-03T09:26:39;19.90;;;14.13;;
5379;SDS011;2713;42.680;23.310;2023-04-03T09:29:12;17.17;;;12.37;;
5379;SDS011;2713;42.680;23.310;2023-04-03T09:31:44;14.13;;;11.80;;
5379;SDS011;2713;42.680;23.310;2023-04-03T09:34:15;12.50;;;9.30;;
5379;SDS011;2713;42.680;23.310;2023-04-03T09:36:48;10.80;;;8.60;;
5379;SDS011;2713;42.680;23.310;2023-04-03T09:39:18;14.73;;;10.50;;
5379;SDS011;2713;42.680;23.310;2023-04-03T09:41:59;15.90;;;12.53;;
5379;SDS011;2713;42.680;23.310;2023-04-03T09:44:30;17.60;;;13.47;;
5379;SDS011;2713;42.680;23.310;2023-04-03T09:46:59;15.60;;;12.10;;
5379;SDS011;2713;42.680;23.310;2023-04-03T09:49:43;11.87;;;8.90;;
5379;SDS011;2713;42.680;23.310;2023-04-03T09:52:18;13.67;;;10.90;;
5379;SDS011;2713;42.680;23.310;2023-04-03T09:54:46;17.13;;;13.30;;
5379;SDS011;2713;42.680;23.310;2023-04-03T09:57:13;22.03;;;10.53;;
5379;SDS011;2713;42.680;23.310;2023-04-03T09:59:43;20.53;;;13.00;;
5379;SDS011;2713;42.680;23.310;2023-04-03T10:05:04;22.13;;;12.40;;
5379;SDS011;2713;42.680;23.310;2023-04-03T10:07:51;17.03;;;12.50;;
5379;SDS011;2713;42.680;23.310;2023-04-03T10:10:18;14.57;;;12.40;;
5379;SDS011;2713;42.680;23.310;2023-04-03T10:12:49;14.60;;;11.20;;
5379;SDS011;2713;42.680;23.310;2023-04-03T10:15:31;13.67;;;10.50;;
5379;SDS011;2713;42.680;23.310;2023-04-03T10:18:06;12.13;;;9.60;;
5379;SDS011;2713;42.680;23.310;2023-04-03T10:20:43;12.73;;;9.40;;
5379;SDS011;2713;42.680;23.310;2023-04-03T10:23:15;11.57;;;8.33;;
5379;SDS011;2713;42.680;23.310;2023-04-03T10:25:50;11.60;;;9.67;;
5379;SDS011;2713;42.680;23.310;2023-04-03T10:28:29;14.70;;;9.40;;
5379;SDS011;2713;42.680;23.310;2023-04-03T10:31:04;13.10;;;9.70;;
5379;SDS011;2713;42.680;23.310;2023-04-03T10:33:40;12.53;;;8.20;;
5379;SDS011;2713;42.680;23.310;2023-04-03T10:36:20;10.20;;;9.20;;
5379;SDS011;2713;42.680;23.310;2023-04-03T10:38:57;9.83;;;8.03;;
5379;SDS011;2713;42.680;23.310;2023-04-03T10:41:34;11.37;;;9.17;;
5379;SDS011;2713;42.680;23.310;2023-04-03T10:44:14;11.63;;;9.20;;
5379;SDS011;2713;42.680;23.310;2023-04-03T10:46:48;10.43;;;8.07;;
5379;SDS011;2713;42.680;23.310;2023-04-03T10:49:21;11.13;;;8.50;;
5379;SDS011;2713;42.680;23.310;2023-04-03T10:51:56;8.63;;;6.83;;
5379;SDS011;2713;42.680;23.310;2023-04-03T10:54:31;7.83;;;6.77;;
5379;SDS011;2713;42.680;23.310;2023-04-03T10:57:04;7.23;;;6.47;;
5379;SDS011;2713;42.680;23.310;2023-04-03T10:59:33;6.90;;;5.80;;
5379;SDS011;2713;42.680;23.310;2023-04-03T11:02:06;8.20;;;5.67;;
5379;SDS011;2713;42.680;23.310;2023-04-03T11:04:39;4.70;;;4.20;;
5379;SDS011;2713;42.680;23.310;2023-04-03T11:07:10;7.10;;;5.00;;
5379;SDS011;2713;42.680;23.310;2023-04-03T11:09:41;4.33;;;3.93;;
5379;SDS011;2713;42.680;23.310;2023-04-03T11:12:11;5.50;;;4.70;;
5379;SDS011;2713;42.680;23.310;2023-04-03T11:14:42;4.47;;;4.07;;
5379;SDS011;2713;42.680;23.310;2023-04-03T11:17:15;5.47;;;4.40;;
5379;SDS011;2713;42.680;23.310;2023-04-03T11:19:49;4.53;;;4.13;;
5379;SDS011;2713;42.680;23.310;2023-04-03T11:22:23;4.20;;;3.90;;
5379;SDS011;2713;42.680;23.310;2023-04-03T11:24:56;4.10;;;3.80;;
5379;SDS011;2713;42.680;23.310;2023-04-03T11:27:30;6.10;;;4.20;;
5379;SDS011;2713;42.680;23.310;2023-04-03T11:30:05;5.43;;;4.20;;
5379;SDS011;2713;42.680;23.310;2023-04-03T11:32:43;5.00;;;3.80;;
5379;SDS011;2713;42.680;23.310;2023-04-03T11:35:21;4.73;;;4.33;;
5379;SDS011;2713;42.680;23.310;2023-04-03T11:37:50;5.53;;;4.20;;
5379;SDS011;2713;42.680;23.310;2023-04-03T11:40:20;4.50;;;3.40;;
5379;SDS011;2713;42.680;23.310;2023-04-03T11:42:52;8.20;;;4.70;;
5379;SDS011;2713;42.680;23.310;2023-04-03T11:45:31;14.10;;;4.03;;
5379;SDS011;2713;42.680;23.310;2023-04-03T11:48:04;8.13;;;3.70;;
5379;SDS011;2713;42.680;23.310;2023-04-03T11:50:44;4.50;;;4.10;;
5379;SDS011;2713;42.680;23.310;2023-04-03T11:56:28;4.53;;;3.83;;
5379;SDS011;2713;42.680;23.310;2023-04-03T11:59:15;4.30;;;4.00;;
5379;SDS011;2713;42.680;23.310;2023-04-03T12:01:49;8.73;;;3.60;;
5379;SDS011;2713;42.680;23.310;2023-04-03T12:04:18;4.63;;;4.23;;
5379;SDS011;2713;42.680;23.310;2023-04-03T12:12:28;4.67;;;3.60;;
5379;SDS011;2713;42.680;23.310;2023-04-03T12:21:06;4.87;;;3.90;;
5379;SDS011;2713;42.680;23.310;2023-04-03T12:23:33;4.33;;;4.03;;
5379;SDS011;2713;42.680;23.310;2023-04-03T12:26:03;4.53;;;3.90;;
5379;SDS011;2713;42.680;23.310;2023-04-03T12:28:48;3.70;;;3.40;;
5379;SDS011;2713;42.680;23.310;2023-04-03T12:31:18;4.07;;;3.67;;
5379;SDS011;2713;42.680;23.310;2023-04-03T12:33:52;3.97;;;3.67;;
5379;SDS011;2713;42.680;23.310;2023-04-03T12:36:33;4.13;;;3.83;;
5379;SDS011;2713;42.680;23.310;2023-04-03T12:39:13;4.10;;;3.80;;
5379;SDS011;2713;42.680;23.310;2023-04-03T12:41:53;4.10;;;3.80;;
5379;SDS011;2713;42.680;23.310;2023-04-03T12:44:33;4.63;;;4.00;;
5379;SDS011;2713;42.680;23.310;2023-04-03T12:47:08;4.30;;;3.90;;
5379;SDS011;2713;42.680;23.310;2023-04-03T12:49:49;4.73;;;4.23;;
5379;SDS011;2713;42.680;23.310;2023-04-03T12:52:18;4.67;;;4.37;;
5379;SDS011;2713;42.680;23.310;2023-04-03T12:54:49;5.20;;;4.80;;
5379;SDS011;2713;42.680;23.310;2023-04-03T12:57:17;5.37;;;4.87;;
5379;SDS011;2713;42.680;23.310;2023-04-03T12:59:45;5.90;;;5.40;;
5379;SDS011;2713;42.680;23.310;2023-04-03T13:02:17;8.13;;;5.50;;
5379;SDS011;2713;42.680;23.310;2023-04-03T13:04:51;8.20;;;5.40;;
5379;SDS011;2713;42.680;23.310;2023-04-03T13:07:23;6.00;;;5.43;;
5379;SDS011;2713;42.680;23.310;2023-04-03T13:10:00;6.50;;;5.90;;
5379;SDS011;2713;42.680;23.310;2023-04-03T13:12:47;6.27;;;5.67;;
5379;SDS011;2713;42.680;23.310;2023-04-03T13:15:18;7.63;;;5.93;;
5379;SDS011;2713;42.680;23.310;2023-04-03T13:17:47;6.67;;;5.97;;
5379;SDS011;2713;42.680;23.310;2023-04-03T13:20:17;6.90;;;6.20;;
5379;SDS011;2713;42.680;23.310;2023-04-03T13:22:48;6.43;;;5.83;;
5379;SDS011;2713;42.680;23.310;2023-04-03T13:25:18;7.07;;;6.47;;
5379;SDS011;2713;42.680;23.310;2023-04-03T13:27:49;7.27;;;6.57;;
5379;SDS011;2713;42.680;23.310;2023-04-03T13:30:19;7.73;;;6.80;;
5379;SDS011;2713;42.680;23.310;2023-04-03T13:32:49;7.70;;;7.00;;
5379;SDS011;2713;42.680;23.310;2023-04-03T13:38:21;7.97;;;7.27;;
5379;SDS011;2713;42.680;23.310;2023-04-03T13:40:49;9.37;;;7.07;;
5379;SDS011;2713;42.680;23.310;2023-04-03T13:43:20;8.97;;;8.07;;
5379;SDS011;2713;42.680;23.310;2023-04-03T13:45:53;8.23;;;7.43;;
5379;SDS011;2713;42.680;23.310;2023-04-03T13:48:24;8.67;;;7.87;;
5379;SDS011;2713;42.680;23.310;2023-04-03T13:50:56;8.20;;;7.37;;
5379;SDS011;2713;42.680;23.310;2023-04-03T13:53:25;7.80;;;7.10;;
5379;SDS011;2713;42.680;23.310;2023-04-03T13:56:05;8.00;;;6.90;;
5379;SDS011;2713;42.680;23.310;2023-04-03T13:58:35;7.93;;;6.73;;
5379;SDS011;2713;42.680;23.310;2023-04-03T14:01:09;7.33;;;6.73;;
5379;SDS011;2713;42.680;23.310;2023-04-03T14:03:41;8.20;;;7.50;;
5379;SDS011;2713;42.680;23.310;2023-04-03T14:06:11;8.70;;;7.53;;
5379;SDS011;2713;42.680;23.310;2023-04-03T14:08:40;8.20;;;7.13;;
5379;SDS011;2713;42.680;23.310;2023-04-03T14:11:09;7.77;;;7.07;;
5379;SDS011;2713;42.680;23.310;2023-04-03T14:13:42;7.87;;;7.17;;
5379;SDS011;2713;42.680;23.310;2023-04-03T14:16:12;7.20;;;6.50;;
5379;SDS011;2713;42.680;23.310;2023-04-03T14:18:40;6.67;;;6.07;;
5379;SDS011;2713;42.680;23.310;2023-04-03T14:21:08;7.97;;;7.17;;
5379;SDS011;2713;42.680;23.310;2023-04-03T14:23:37;9.33;;;7.60;;
5379;SDS011;2713;42.680;23.310;2023-04-03T14:26:04;8.10;;;6.93;;
5379;SDS011;2713;42.680;23.310;2023-04-03T14:28:34;7.50;;;6.80;;
5379;SDS011;2713;42.680;23.310;2023-04-03T14:31:03;7.73;;;7.00;;
5379;SDS011;2713;42.680;23.310;2023-04-03T14:33:30;7.30;;;6.33;;
5379;SDS011;2713;42.680;23.310;2023-04-03T14:36:00;7.70;;;7.00;;
5379;SDS011;2713;42.680;23.310;2023-04-03T14:38:28;7.00;;;6.33;;
5379;SDS011;2713;42.680;23.310;2023-04-03T14:40:57;7.40;;;6.70;;
5379;SDS011;2713;42.680;23.310;2023-04-03T14:43:24;7.60;;;6.90;;
5379;SDS011;2713;42.680;23.310;2023-04-03T14:45:51;7.70;;;6.90;;
5379;SDS011;2713;42.680;23.310;2023-04-03T14:48:20;6.90;;;6.20;;
5379;SDS011;2713;42.680;23.310;2023-04-03T14:50:49;6.53;;;6.00;;
5379;SDS011;2713;42.680;23.310;2023-04-03T14:53:18;6.70;;;6.10;;
5379;SDS011;2713;42.680;23.310;2023-04-03T14:55:47;6.97;;;6.37;;
5379;SDS011;2713;42.680;23.310;2023-04-03T14:58:15;6.60;;;6.00;;
5379;SDS011;2713;42.680;23.310;2023-04-03T15:00:44;6.93;;;6.33;;
5379;SDS011;2713;42.680;23.310;2023-04-03T15:03:14;6.97;;;6.37;;
5379;SDS011;2713;42.680;23.310;2023-04-03T15:05:45;8.10;;;6.57;;
5379;SDS011;2713;42.680;23.310;2023-04-03T15:08:16;7.47;;;6.73;;
5379;SDS011;2713;42.680;23.310;2023-04-03T15:10:46;6.33;;;5.77;;
5379;SDS011;2713;42.680;23.310;2023-04-03T15:13:13;6.30;;;5.70;;
5379;SDS011;2713;42.680;23.310;2023-04-03T15:15:40;7.70;;;7.00;;
5379;SDS011;2713;42.680;23.310;2023-04-03T15:18:16;6.27;;;5.70;;
5379;SDS011;2713;42.680;23.310;2023-04-03T15:20:48;7.00;;;6.30;;
5379;SDS011;2713;42.680;23.310;2023-04-03T15:23:15;9.40;;;7.90;;
5379;SDS011;2713;42.680;23.310;2023-04-03T15:25:43;5.77;;;5.10;;
5379;SDS011;2713;42.680;23.310;2023-04-03T15:28:14;5.73;;;5.23;;
5379;SDS011;2713;42.680;23.310;2023-04-03T15:30:45;4.93;;;4.43;;
5379;SDS011;2713;42.680;23.310;2023-04-03T15:33:12;6.33;;;4.57;;
5379;SDS011;2713;42.680;23.310;2023-04-03T15:35:40;4.73;;;4.43;;